LFRZ 281600Z AUTO 23015KT 2900 -DZ BR OVC003 12/12 Q1012 TEMPO 25018G30KT RA

ElémentsDécodage
LFRZ Station météo située sur l'aérodrome de SAINT-NAZAIRE Montoir
281600Z émis le 28 du mois à 16h00 UTC
AUTO Bulletin édité par un automate
23015KT vent du 230°, 15 noeuds
2900 visibilité horizontale de 2900 mètres
-DZ faible bruine
BR brume
OVC003 couverture nuageuse totale (8/8) à 300 pieds
12/12 température 12°C, point de rosée 12°C
 soit une humidité relative de 100%
Q1012 la pression au niveau de la mer (QNH) est de 1012 hPa
TEMPO fluctuation temporaire prévue
25018G30KT vent du 250°, moyenne: 18 noeuds, avec rafales à 30 noeuds
RA pluie